Detall de PIREP

Printer-friendly versionPDF version

[2015/11/08 08:34:00]
Flight IATA:CT3205
Pilot Number:012
Company ICAO:CAT
Aircraft Type:MD11/E
PAX:256
Aircraft Registration:PAX
Departing Airport: EDDT
Destination Airport: LEPA
Alternate Airport:LEBL
Online: VATSIM
Route:BRANE Q201 BUREL UM736 GALMA AMOSA UN869 NATOR UN850 EVANO UM984 DIVKO UN852 VERSO UL129 LUNIK
Flight Level:F330
No Slew and time accel
No pause
Crash detect
Detect pilot in Cockpit between each 30 and 45 minutes
08:34 Zero fuel Weight: 378176 Lbs, Fuel Weight: 63990 Lbs
08:34 VATSIM:EDDT 080820Z 28012KT 9999 SCT030 14/09 Q1026 NOSIG
08:34 VATSIM:LEPA 080800Z VRB01KT 9000 FEW002 14/14 Q1031 NOSIG
08:38 Parking Brakes off
08:41 Take-off
08:41 Take off Weight: 441030 Lbs
08:41 Wind: 276º @ 012 Knots Heading: 262º
08:41 POS N52º 33´ 34´´ E013º 17´ 07´´
08:41 Gear Up: 205 Knots
08:41 Flaps:3 at 206 Knots
08:42 Flaps:2 at 229 Knots
08:42 Flaps:3 at 230 Knots
08:42 Flaps:2 at 233 Knots
08:42 Flaps:1 at 233 Knots
08:44 Flaps:0 at 268 Knots
08:52 TOC
08:52 Fuel Weight: 55212 Lb
08:52 TOD
08:52 Fuel Weight: 55175 Lb
08:52 TOC
08:52 Fuel Weight: 55161 Lb
08:56 Wind:288º@096 Knots Heading: 210º Ground Speed: 469 Knots Altitude 33326 ft
09:11 Wind:283º@075 Knots Heading: 200º Ground Speed: 475 Knots Altitude 33500 ft
09:26 Wind:278º@058 Knots Heading: 239º Ground Speed: 436 Knots Altitude 33497 ft
09:41 Wind:294º@034 Knots Heading: 177º Ground Speed: 494 Knots Altitude 33543 ft
09:56 Wind:321º@023 Knots Heading: 216º Ground Speed: 489 Knots Altitude 33513 ft
10:11 Wind:332º@018 Knots Heading: 249º Ground Speed: 470 Knots Altitude 33523 ft
10:26 Wind:314º@008 Knots Heading: 209º Ground Speed: 480 Knots Altitude 33507 ft
10:32 TOD
10:32 Fuel Weight: 29042 Lb
10:41 Wind:076º@007 Knots Heading: 176º Ground Speed: 373 Knots Altitude 16145 ft
10:46 Flaps:1 at 237 Knots
10:47 Flaps:2 at 232 Knots
10:47 Flaps:3 at 228 Knots
10:48 Flaps:4 at 202 Knots
10:48 Flaps:3 at 202 Knots
10:48 Flaps:4 at 202 Knots
10:48 Flaps:5 at 202 Knots
10:48 Flaps:6 at 201 Knots
10:48 Gear Down: 202 Knots
10:50 Flaps:7 at 167 Knots
10:51 Flaps:6 at 190 Knots
10:51 Flaps:7 at 189 Knots
10:55 Flaps:6 at 190 Knots
10:55 Flaps:7 at 189 Knots
10:56 Wind:112º@001 Knots Heading: 239º Ground Speed: 188 Knots Altitude 2152 ft
10:56 Flaps:6 at 190 Knots
10:57 Flaps:7 at 189 Knots
10:58 TouchDown:Rate -320 ft/min Speed: 159 Knots
10:58 VATSIM:LEPA 081030Z 00000KT 9999 FEW025 21/16 Q1031 NOSIG
10:58 Land
10:58 Wind:069º@000 Knots
10:58 Heading: 236º
10:58 Flight Duration: 02:17
10:58 Landing Weight: 401448 Lbs
10:58 POS N39º 32´ 42´´ E002º 44´ 23´´
11:02 Parking brakes on
11:02 Block to BlockDuration: 02:24
11:02 Final Fuel: 22925 Lbls
11:02 Spent Fuel: 41064 Lbls
11:02 Flight Length: 989 NM
11:02 TOD Land Length: 129 NM

Exportar CSV

Powered by Drupal - Modified by Danger4k